sensor_id;sensor_type;location;lat;lon;timestamp;temperature;humidity
80412;SHT30;69749;42.684;23.360;2023-07-30T00:02:04;22.88;54.25
80412;SHT30;69749;42.684;23.360;2023-07-30T00:04:29;22.88;54.12
80412;SHT30;69749;42.684;23.360;2023-07-30T00:06:54;22.88;54.00
80412;SHT30;69749;42.684;23.360;2023-07-30T00:09:20;22.74;54.27
80412;SHT30;69749;42.684;23.360;2023-07-30T00:11:46;22.60;54.65
80412;SHT30;69749;42.684;23.360;2023-07-30T00:14:11;22.63;54.69
80412;SHT30;69749;42.684;23.360;2023-07-30T00:16:37;22.64;54.49
80412;SHT30;69749;42.684;23.360;2023-07-30T00:19:02;22.64;54.32
80412;SHT30;69749;42.684;23.360;2023-07-30T00:21:27;22.56;54.73
80412;SHT30;69749;42.684;23.360;2023-07-30T00:23:53;22.59;54.59
80412;SHT30;69749;42.684;23.360;2023-07-30T00:26:18;22.60;54.58
80412;SHT30;69749;42.684;23.360;2023-07-30T00:28:43;22.61;54.44
80412;SHT30;69749;42.684;23.360;2023-07-30T00:31:09;22.61;54.49
80412;SHT30;69749;42.684;23.360;2023-07-30T00:33:34;22.61;54.42
80412;SHT30;69749;42.684;23.360;2023-07-30T00:36:00;22.59;54.30
80412;SHT30;69749;42.684;23.360;2023-07-30T00:38:25;22.60;54.05
80412;SHT30;69749;42.684;23.360;2023-07-30T00:40:50;22.60;53.73
80412;SHT30;69749;42.684;23.360;2023-07-30T00:43:16;22.57;53.73
80412;SHT30;69749;42.684;23.360;2023-07-30T00:45:43;22.56;53.63
80412;SHT30;69749;42.684;23.360;2023-07-30T00:48:10;22.57;53.55
80412;SHT30;69749;42.684;23.360;2023-07-30T00:50:36;22.57;53.64
80412;SHT30;69749;42.684;23.360;2023-07-30T00:53:02;22.59;53.60
80412;SHT30;69749;42.684;23.360;2023-07-30T00:55:27;22.53;53.82
80412;SHT30;69749;42.684;23.360;2023-07-30T00:57:53;22.52;53.91
80412;SHT30;69749;42.684;23.360;2023-07-30T01:00:18;22.50;54.07
80412;SHT30;69749;42.684;23.360;2023-07-30T01:02:44;22.48;53.98
80412;SHT30;69749;42.684;23.360;2023-07-30T01:05:09;22.46;54.04
80412;SHT30;69749;42.684;23.360;2023-07-30T01:07:35;22.42;54.09
80412;SHT30;69749;42.684;23.360;2023-07-30T01:10:01;22.39;54.46
80412;SHT30;69749;42.684;23.360;2023-07-30T01:12:28;22.23;54.85
80412;SHT30;69749;42.684;23.360;2023-07-30T01:14:56;22.20;55.05
80412;SHT30;69749;42.684;23.360;2023-07-30T01:17:21;22.22;55.12
80412;SHT30;69749;42.684;23.360;2023-07-30T01:19:47;22.13;55.41
80412;SHT30;69749;42.684;23.360;2023-07-30T01:22:14;22.02;55.24
80412;SHT30;69749;42.684;23.360;2023-07-30T01:24:40;21.95;55.63
80412;SHT30;69749;42.684;23.360;2023-07-30T01:27:07;21.97;55.54
80412;SHT30;69749;42.684;23.360;2023-07-30T01:32:05;22.05;55.54
80412;SHT30;69749;42.684;23.360;2023-07-30T01:34:34;22.06;55.51
80412;SHT30;69749;42.684;23.360;2023-07-30T01:37:00;22.02;55.67
80412;SHT30;69749;42.684;23.360;2023-07-30T01:39:27;21.84;56.15
80412;SHT30;69749;42.684;23.360;2023-07-30T01:41:54;21.80;56.36
80412;SHT30;69749;42.684;23.360;2023-07-30T01:44:20;21.84;56.01
80412;SHT30;69749;42.684;23.360;2023-07-30T01:46:45;21.82;55.85
80412;SHT30;69749;42.684;23.360;2023-07-30T01:49:10;21.85;55.67
80412;SHT30;69749;42.684;23.360;2023-07-30T01:51:36;21.89;55.65
80412;SHT30;69749;42.684;23.360;2023-07-30T01:54:01;21.85;55.41
80412;SHT30;69749;42.684;23.360;2023-07-30T01:56:26;21.87;55.27
80412;SHT30;69749;42.684;23.360;2023-07-30T01:58:52;21.89;55.25
80412;SHT30;69749;42.684;23.360;2023-07-30T02:01:17;21.89;55.28
80412;SHT30;69749;42.684;23.360;2023-07-30T02:03:43;21.77;55.51
80412;SHT30;69749;42.684;23.360;2023-07-30T02:06:08;21.77;55.66
80412;SHT30;69749;42.684;23.360;2023-07-30T02:08:34;21.62;56.11
80412;SHT30;69749;42.684;23.360;2023-07-30T02:10:59;21.53;56.55
80412;SHT30;69749;42.684;23.360;2023-07-30T02:13:25;21.50;56.67
80412;SHT30;69749;42.684;23.360;2023-07-30T02:15:51;21.49;56.78
80412;SHT30;69749;42.684;23.360;2023-07-30T02:18:17;21.54;56.69
80412;SHT30;69749;42.684;23.360;2023-07-30T02:20:42;21.50;56.92
80412;SHT30;69749;42.684;23.360;2023-07-30T02:23:08;21.50;56.95
80412;SHT30;69749;42.684;23.360;2023-07-30T02:25:34;21.53;56.93
80412;SHT30;69749;42.684;23.360;2023-07-30T02:28:00;21.47;56.94
80412;SHT30;69749;42.684;23.360;2023-07-30T02:30:26;21.53;57.06
80412;SHT30;69749;42.684;23.360;2023-07-30T02:32:51;21.53;57.12
80412;SHT30;69749;42.684;23.360;2023-07-30T02:35:17;21.54;57.06
80412;SHT30;69749;42.684;23.360;2023-07-30T02:37:42;21.57;57.02
80412;SHT30;69749;42.684;23.360;2023-07-30T02:40:08;21.60;57.08
80412;SHT30;69749;42.684;23.360;2023-07-30T02:42:34;21.58;57.08
80412;SHT30;69749;42.684;23.360;2023-07-30T02:44:59;21.57;56.83
80412;SHT30;69749;42.684;23.360;2023-07-30T02:47:24;21.60;56.53
80412;SHT30;69749;42.684;23.360;2023-07-30T02:49:50;21.53;56.73
80412;SHT30;69749;42.684;23.360;2023-07-30T02:52:15;21.55;56.57
80412;SHT30;69749;42.684;23.360;2023-07-30T02:54:41;21.55;56.66
80412;SHT30;69749;42.684;23.360;2023-07-30T02:57:06;21.54;56.61
80412;SHT30;69749;42.684;23.360;2023-07-30T02:59:31;21.53;56.55
80412;SHT30;69749;42.684;23.360;2023-07-30T03:02:01;21.51;56.50
80412;SHT30;69749;42.684;23.360;2023-07-30T03:04:26;21.50;56.58
80412;SHT30;69749;42.684;23.360;2023-07-30T03:06:52;21.44;56.68
80412;SHT30;69749;42.684;23.360;2023-07-30T03:09:17;21.43;56.76
80412;SHT30;69749;42.684;23.360;2023-07-30T03:11:43;21.41;56.76
80412;SHT30;69749;42.684;23.360;2023-07-30T03:14:08;21.40;56.85
80412;SHT30;69749;42.684;23.360;2023-07-30T03:16:33;21.36;56.83
80412;SHT30;69749;42.684;23.360;2023-07-30T03:18:59;21.34;56.93
80412;SHT30;69749;42.684;23.360;2023-07-30T03:21:25;21.24;57.09
80412;SHT30;69749;42.684;23.360;2023-07-30T03:23:51;21.16;57.28
80412;SHT30;69749;42.684;23.360;2023-07-30T03:26:16;21.13;57.53
80412;SHT30;69749;42.684;23.360;2023-07-30T03:28:42;20.93;57.94
80412;SHT30;69749;42.684;23.360;2023-07-30T03:31:07;20.82;58.18
80412;SHT30;69749;42.684;23.360;2023-07-30T03:33:32;20.83;58.27
80412;SHT30;69749;42.684;23.360;2023-07-30T03:35:58;20.78;58.17
80412;SHT30;69749;42.684;23.360;2023-07-30T03:38:24;20.61;58.66
80412;SHT30;69749;42.684;23.360;2023-07-30T03:40:49;20.64;58.50
80412;SHT30;69749;42.684;23.360;2023-07-30T03:43:15;20.67;58.45
80412;SHT30;69749;42.684;23.360;2023-07-30T03:45:40;20.69;58.36
80412;SHT30;69749;42.684;23.360;2023-07-30T03:48:06;20.75;58.21
80412;SHT30;69749;42.684;23.360;2023-07-30T03:50:31;20.81;58.05
80412;SHT30;69749;42.684;23.360;2023-07-30T03:52:57;20.82;57.95
80412;SHT30;69749;42.684;23.360;2023-07-30T03:55:23;20.89;57.74
80412;SHT30;69749;42.684;23.360;2023-07-30T03:57:49;20.93;57.66
80412;SHT30;69749;42.684;23.360;2023-07-30T04:00:14;20.88;57.73
80412;SHT30;69749;42.684;23.360;2023-07-30T04:02:40;20.88;57.74
80412;SHT30;69749;42.684;23.360;2023-07-30T04:05:06;20.93;57.65
80412;SHT30;69749;42.684;23.360;2023-07-30T04:07:31;20.95;57.61
80412;SHT30;69749;42.684;23.360;2023-07-30T04:09:56;20.99;57.64
80412;SHT30;69749;42.684;23.360;2023-07-30T04:12:22;21.00;57.55
80412;SHT30;69749;42.684;23.360;2023-07-30T04:14:48;21.06;57.38
80412;SHT30;69749;42.684;23.360;2023-07-30T04:17:13;21.02;57.27
80412;SHT30;69749;42.684;23.360;2023-07-30T04:19:38;21.00;57.29
80412;SHT30;69749;42.684;23.360;2023-07-30T04:22:04;21.07;57.17
80412;SHT30;69749;42.684;23.360;2023-07-30T04:24:29;21.18;56.80
80412;SHT30;69749;42.684;23.360;2023-07-30T04:26:55;21.24;56.65
80412;SHT30;69749;42.684;23.360;2023-07-30T04:29:20;21.23;56.72
80412;SHT30;69749;42.684;23.360;2023-07-30T04:31:46;21.27;56.69
80412;SHT30;69749;42.684;23.360;2023-07-30T04:34:11;21.24;56.82
80412;SHT30;69749;42.684;23.360;2023-07-30T04:36:37;21.24;56.72
80412;SHT30;69749;42.684;23.360;2023-07-30T04:39:02;21.34;56.42
80412;SHT30;69749;42.684;23.360;2023-07-30T04:41:28;21.44;55.91
80412;SHT30;69749;42.684;23.360;2023-07-30T04:43:53;21.43;55.74
80412;SHT30;69749;42.684;23.360;2023-07-30T04:46:18;21.43;55.93
80412;SHT30;69749;42.684;23.360;2023-07-30T04:48:44;21.44;55.64
80412;SHT30;69749;42.684;23.360;2023-07-30T04:51:09;21.44;55.59
80412;SHT30;69749;42.684;23.360;2023-07-30T04:53:35;21.39;55.80
80412;SHT30;69749;42.684;23.360;2023-07-30T04:56:00;21.47;55.73
80412;SHT30;69749;42.684;23.360;2023-07-30T04:58:25;21.49;55.69
80412;SHT30;69749;42.684;23.360;2023-07-30T05:00:51;21.54;55.51
80412;SHT30;69749;42.684;23.360;2023-07-30T05:03:16;21.54;55.69
80412;SHT30;69749;42.684;23.360;2023-07-30T05:05:42;21.62;56.46
80412;SHT30;69749;42.684;23.360;2023-07-30T05:08:08;21.73;57.03
80412;SHT30;69749;42.684;23.360;2023-07-30T05:10:33;21.82;57.17
80412;SHT30;69749;42.684;23.360;2023-07-30T05:12:59;21.88;56.96
80412;SHT30;69749;42.684;23.360;2023-07-30T05:15:26;21.91;56.34
80412;SHT30;69749;42.684;23.360;2023-07-30T05:17:51;21.99;56.15
80412;SHT30;69749;42.684;23.360;2023-07-30T05:20:16;22.12;55.49
80412;SHT30;69749;42.684;23.360;2023-07-30T05:22:42;22.25;55.33
80412;SHT30;69749;42.684;23.360;2023-07-30T05:25:08;22.43;54.89
80412;SHT30;69749;42.684;23.360;2023-07-30T05:27:35;22.61;54.32
80412;SHT30;69749;42.684;23.360;2023-07-30T05:30:01;22.83;53.60
80412;SHT30;69749;42.684;23.360;2023-07-30T05:32:26;22.98;53.11
80412;SHT30;69749;42.684;23.360;2023-07-30T05:34:51;23.18;52.53
80412;SHT30;69749;42.684;23.360;2023-07-30T05:37:17;23.31;52.00
80412;SHT30;69749;42.684;23.360;2023-07-30T05:39:42;23.48;51.92
80412;SHT30;69749;42.684;23.360;2023-07-30T05:42:08;23.73;51.23
80412;SHT30;69749;42.684;23.360;2023-07-30T05:44:34;23.96;50.44
80412;SHT30;69749;42.684;23.360;2023-07-30T05:46:59;24.23;49.85
80412;SHT30;69749;42.684;23.360;2023-07-30T05:49:25;24.43;49.51
80412;SHT30;69749;42.684;23.360;2023-07-30T05:51:50;24.76;48.31
80412;SHT30;69749;42.684;23.360;2023-07-30T05:54:16;24.99;48.19
80412;SHT30;69749;42.684;23.360;2023-07-30T05:56:42;25.44;47.31
80412;SHT30;69749;42.684;23.360;2023-07-30T05:59:07;25.84;46.34
80412;SHT30;69749;42.684;23.360;2023-07-30T06:01:33;26.04;45.11
80412;SHT30;69749;42.684;23.360;2023-07-30T06:03:58;26.19;45.17
80412;SHT30;69749;42.684;23.360;2023-07-30T06:06:23;26.55;44.51
80412;SHT30;69749;42.684;23.360;2023-07-30T06:08:53;26.94;43.51
80412;SHT30;69749;42.684;23.360;2023-07-30T06:11:19;27.23;43.22
80412;SHT30;69749;42.684;23.360;2023-07-30T06:13:44;27.62;41.67
80412;SHT30;69749;42.684;23.360;2023-07-30T06:16:10;28.13;40.64
80412;SHT30;69749;42.684;23.360;2023-07-30T06:18:35;29.02;38.72
80412;SHT30;69749;42.684;23.360;2023-07-30T06:21:01;30.07;36.92
80412;SHT30;69749;42.684;23.360;2023-07-30T06:23:26;31.07;34.80
80412;SHT30;69749;42.684;23.360;2023-07-30T06:25:51;32.30;32.68
80412;SHT30;69749;42.684;23.360;2023-07-30T06:28:17;33.60;31.12
80412;SHT30;69749;42.684;23.360;2023-07-30T06:30:42;34.68;29.69
80412;SHT30;69749;42.684;23.360;2023-07-30T06:33:08;35.40;28.40
80412;SHT30;69749;42.684;23.360;2023-07-30T06:35:33;36.43;27.22
80412;SHT30;69749;42.684;23.360;2023-07-30T06:37:59;37.37;25.66
80412;SHT30;69749;42.684;23.360;2023-07-30T06:40:24;38.33;24.87
80412;SHT30;69749;42.684;23.360;2023-07-30T06:42:49;38.88;24.09
80412;SHT30;69749;42.684;23.360;2023-07-30T06:45:15;39.12;23.63
80412;SHT30;69749;42.684;23.360;2023-07-30T06:47:40;39.31;23.35
80412;SHT30;69749;42.684;23.360;2023-07-30T06:50:06;39.94;22.73
80412;SHT30;69749;42.684;23.360;2023-07-30T06:52:35;40.64;21.75
80412;SHT30;69749;42.684;23.360;2023-07-30T06:55:03;41.42;21.05
80412;SHT30;69749;42.684;23.360;2023-07-30T06:57:29;41.85;20.37
80412;SHT30;69749;42.684;23.360;2023-07-30T06:59:55;42.80;19.68
80412;SHT30;69749;42.684;23.360;2023-07-30T07:02:21;43.24;19.44
80412;SHT30;69749;42.684;23.360;2023-07-30T07:04:46;43.37;19.41
80412;SHT30;69749;42.684;23.360;2023-07-30T07:07:12;43.89;18.58
80412;SHT30;69749;42.684;23.360;2023-07-30T07:09:37;44.09;18.30
80412;SHT30;69749;42.684;23.360;2023-07-30T07:12:03;43.68;18.65
80412;SHT30;69749;42.684;23.360;2023-07-30T07:14:28;43.52;18.77
80412;SHT30;69749;42.684;23.360;2023-07-30T07:16:54;43.47;18.82
80412;SHT30;69749;42.684;23.360;2023-07-30T07:19:23;43.95;18.52
80412;SHT30;69749;42.684;23.360;2023-07-30T07:21:49;44.59;18.19
80412;SHT30;69749;42.684;23.360;2023-07-30T07:24:15;44.17;18.13
80412;SHT30;69749;42.684;23.360;2023-07-30T07:26:41;43.79;18.48
80412;SHT30;69749;42.684;23.360;2023-07-30T07:29:06;43.27;18.87
80412;SHT30;69749;42.684;23.360;2023-07-30T07:31:32;43.28;19.12
80412;SHT30;69749;42.684;23.360;2023-07-30T07:33:57;43.25;18.93
80412;SHT30;69749;42.684;23.360;2023-07-30T07:36:23;42.45;19.33
80412;SHT30;69749;42.684;23.360;2023-07-30T07:38:48;41.32;20.29
80412;SHT30;69749;42.684;23.360;2023-07-30T07:41:15;40.66;21.16
80412;SHT30;69749;42.684;23.360;2023-07-30T07:43:42;39.70;22.66
80412;SHT30;69749;42.684;23.360;2023-07-30T07:46:07;38.13;23.18
80412;SHT30;69749;42.684;23.360;2023-07-30T07:48:39;37.45;23.97
80412;SHT30;69749;42.684;23.360;2023-07-30T07:51:05;37.07;24.64
80412;SHT30;69749;42.684;23.360;2023-07-30T07:53:30;36.75;24.78
80412;SHT30;69749;42.684;23.360;2023-07-30T07:55:56;36.75;25.01
80412;SHT30;69749;42.684;23.360;2023-07-30T07:58:21;36.82;24.41
80412;SHT30;69749;42.684;23.360;2023-07-30T08:00:47;36.49;25.01
80412;SHT30;69749;42.684;23.360;2023-07-30T08:03:12;36.36;24.72
80412;SHT30;69749;42.684;23.360;2023-07-30T08:05:38;35.80;25.70
80412;SHT30;69749;42.684;23.360;2023-07-30T08:08:03;35.80;26.17
80412;SHT30;69749;42.684;23.360;2023-07-30T08:10:29;35.90;26.04
80412;SHT30;69749;42.684;23.360;2023-07-30T08:12:54;35.73;25.98
80412;SHT30;69749;42.684;23.360;2023-07-30T08:15:20;35.71;26.22
80412;SHT30;69749;42.684;23.360;2023-07-30T08:17:45;35.33;26.97
80412;SHT30;69749;42.684;23.360;2023-07-30T08:20:11;35.07;26.43
80412;SHT30;69749;42.684;23.360;2023-07-30T08:22:36;35.17;26.15
80412;SHT30;69749;42.684;23.360;2023-07-30T08:25:02;34.92;26.74
80412;SHT30;69749;42.684;23.360;2023-07-30T08:27:28;34.59;27.53
80412;SHT30;69749;42.684;23.360;2023-07-30T08:29:54;34.74;27.21
80412;SHT30;69749;42.684;23.360;2023-07-30T08:32:19;34.54;26.93
80412;SHT30;69749;42.684;23.360;2023-07-30T08:34:44;34.20;26.99
80412;SHT30;69749;42.684;23.360;2023-07-30T08:37:10;34.08;27.35
80412;SHT30;69749;42.684;23.360;2023-07-30T08:39:35;33.90;28.04
80412;SHT30;69749;42.684;23.360;2023-07-30T08:42:01;33.93;28.28
80412;SHT30;69749;42.684;23.360;2023-07-30T08:44:26;34.06;28.02
80412;SHT30;69749;42.684;23.360;2023-07-30T08:46:51;34.20;27.89
80412;SHT30;69749;42.684;23.360;2023-07-30T08:49:17;34.37;27.60
80412;SHT30;69749;42.684;23.360;2023-07-30T08:51:42;34.44;28.04
80412;SHT30;69749;42.684;23.360;2023-07-30T08:54:09;34.21;27.44
80412;SHT30;69749;42.684;23.360;2023-07-30T08:56:37;34.35;27.16
80412;SHT30;69749;42.684;23.360;2023-07-30T08:59:03;34.11;27.63
80412;SHT30;69749;42.684;23.360;2023-07-30T09:01:34;33.92;28.44
80412;SHT30;69749;42.684;23.360;2023-07-30T09:04:00;34.06;28.11
80412;SHT30;69749;42.684;23.360;2023-07-30T09:06:26;34.06;27.50
80412;SHT30;69749;42.684;23.360;2023-07-30T09:08:51;34.00;27.58
80412;SHT30;69749;42.684;23.360;2023-07-30T09:11:17;34.16;27.78
80412;SHT30;69749;42.684;23.360;2023-07-30T09:13:43;34.33;27.20
80412;SHT30;69749;42.684;23.360;2023-07-30T09:16:12;34.23;27.71
80412;SHT30;69749;42.684;23.360;2023-07-30T09:18:42;34.35;27.19
80412;SHT30;69749;42.684;23.360;2023-07-30T09:21:10;34.38;26.87
80412;SHT30;69749;42.684;23.360;2023-07-30T09:23:43;34.52;26.38
80412;SHT30;69749;42.684;23.360;2023-07-30T09:26:09;34.61;26.27
80412;SHT30;69749;42.684;23.360;2023-07-30T09:28:35;34.71;25.73
80412;SHT30;69749;42.684;23.360;2023-07-30T09:31:02;34.82;25.34
80412;SHT30;69749;42.684;23.360;2023-07-30T09:33:27;34.96;24.63
80412;SHT30;69749;42.684;23.360;2023-07-30T09:35:53;35.07;24.16
80412;SHT30;69749;42.684;23.360;2023-07-30T09:38:19;35.14;24.29
80412;SHT30;69749;42.684;23.360;2023-07-30T09:41:01;35.19;24.47
80412;SHT30;69749;42.684;23.360;2023-07-30T09:43:32;35.27;24.15
80412;SHT30;69749;42.684;23.360;2023-07-30T09:46:03;35.25;24.15
80412;SHT30;69749;42.684;23.360;2023-07-30T09:48:32;35.20;24.70
80412;SHT30;69749;42.684;23.360;2023-07-30T09:51:03;34.17;25.23
80412;SHT30;69749;42.684;23.360;2023-07-30T09:53:33;34.08;25.33
80412;SHT30;69749;42.684;23.360;2023-07-30T09:56:03;34.11;25.35
80412;SHT30;69749;42.684;23.360;2023-07-30T09:58:32;34.29;25.36
80412;SHT30;69749;42.684;23.360;2023-07-30T10:01:03;34.33;25.56
80412;SHT30;69749;42.684;23.360;2023-07-30T10:03:34;34.34;25.37
80412;SHT30;69749;42.684;23.360;2023-07-30T10:06:03;34.31;25.14
80412;SHT30;69749;42.684;23.360;2023-07-30T10:08:35;34.18;24.85
80412;SHT30;69749;42.684;23.360;2023-07-30T10:11:03;34.21;24.86
80412;SHT30;69749;42.684;23.360;2023-07-30T10:13:30;34.17;25.13
80412;SHT30;69749;42.684;23.360;2023-07-30T10:15:55;34.21;24.95
80412;SHT30;69749;42.684;23.360;2023-07-30T10:18:25;34.34;24.88
80412;SHT30;69749;42.684;23.360;2023-07-30T10:20:54;34.37;25.27
80412;SHT30;69749;42.684;23.360;2023-07-30T10:23:20;34.34;24.96
80412;SHT30;69749;42.684;23.360;2023-07-30T10:25:49;34.31;24.84
80412;SHT30;69749;42.684;23.360;2023-07-30T10:30:58;34.21;25.61
80412;SHT30;69749;42.684;23.360;2023-07-30T10:33:43;34.08;25.55
80412;SHT30;69749;42.684;23.360;2023-07-30T10:36:10;33.86;25.88
80412;SHT30;69749;42.684;23.360;2023-07-30T10:38:35;33.86;25.71
80412;SHT30;69749;42.684;23.360;2023-07-30T10:43:42;33.97;26.51
80412;SHT30;69749;42.684;23.360;2023-07-30T10:46:12;34.04;26.20
80412;SHT30;69749;42.684;23.360;2023-07-30T10:48:39;34.04;25.60
80412;SHT30;69749;42.684;23.360;2023-07-30T10:51:08;34.07;25.88
80412;SHT30;69749;42.684;23.360;2023-07-30T10:53:34;34.13;25.60
80412;SHT30;69749;42.684;23.360;2023-07-30T10:56:03;34.07;25.98
80412;SHT30;69749;42.684;23.360;2023-07-30T10:58:30;34.08;26.00
80412;SHT30;69749;42.684;23.360;2023-07-30T11:00:56;34.14;25.28
80412;SHT30;69749;42.684;23.360;2023-07-30T11:03:27;34.04;25.67
80412;SHT30;69749;42.684;23.360;2023-07-30T11:05:53;33.98;25.48
80412;SHT30;69749;42.684;23.360;2023-07-30T11:08:21;33.80;25.52
80412;SHT30;69749;42.684;23.360;2023-07-30T11:10:46;33.77;25.67
80412;SHT30;69749;42.684;23.360;2023-07-30T11:13:13;33.79;25.78
80412;SHT30;69749;42.684;23.360;2023-07-30T11:15:47;33.81;26.25
80412;SHT30;69749;42.684;23.360;2023-07-30T11:18:12;33.81;26.16
80412;SHT30;69749;42.684;23.360;2023-07-30T11:20:38;33.74;25.69
80412;SHT30;69749;42.684;23.360;2023-07-30T11:23:20;33.77;26.06
80412;SHT30;69749;42.684;23.360;2023-07-30T11:25:47;33.72;26.04
80412;SHT30;69749;42.684;23.360;2023-07-30T11:28:13;33.55;25.82
80412;SHT30;69749;42.684;23.360;2023-07-30T11:30:39;33.52;26.48
80412;SHT30;69749;42.684;23.360;2023-07-30T11:33:04;33.63;26.48
80412;SHT30;69749;42.684;23.360;2023-07-30T11:35:30;33.46;25.52
80412;SHT30;69749;42.684;23.360;2023-07-30T11:37:56;33.32;25.96
80412;SHT30;69749;42.684;23.360;2023-07-30T11:40:23;33.31;25.96
80412;SHT30;69749;42.684;23.360;2023-07-30T11:42:48;33.32;26.33
80412;SHT30;69749;42.684;23.360;2023-07-30T11:45:22;33.28;26.15
80412;SHT30;69749;42.684;23.360;2023-07-30T11:47:48;33.31;26.41
80412;SHT30;69749;42.684;23.360;2023-07-30T11:50:14;33.38;25.84
80412;SHT30;69749;42.684;23.360;2023-07-30T11:52:55;33.43;26.43
80412;SHT30;69749;42.684;23.360;2023-07-30T11:55:21;33.45;26.19
80412;SHT30;69749;42.684;23.360;2023-07-30T11:57:47;33.23;26.07
80412;SHT30;69749;42.684;23.360;2023-07-30T12:00:12;33.09;26.70
80412;SHT30;69749;42.684;23.360;2023-07-30T12:02:38;33.12;26.07
80412;SHT30;69749;42.684;23.360;2023-07-30T12:05:04;33.14;26.34
80412;SHT30;69749;42.684;23.360;2023-07-30T12:07:32;33.18;26.27
80412;SHT30;69749;42.684;23.360;2023-07-30T12:10:11;33.12;26.80
80412;SHT30;69749;42.684;23.360;2023-07-30T12:12:37;33.07;26.15
80412;SHT30;69749;42.684;23.360;2023-07-30T12:15:11;33.08;26.46
80412;SHT30;69749;42.684;23.360;2023-07-30T12:17:39;33.14;26.75
80412;SHT30;69749;42.684;23.360;2023-07-30T12:20:05;33.17;27.27
80412;SHT30;69749;42.684;23.360;2023-07-30T12:22:34;33.22;26.87
80412;SHT30;69749;42.684;23.360;2023-07-30T12:25:01;33.28;26.07
80412;SHT30;69749;42.684;23.360;2023-07-30T12:27:26;33.32;26.45
80412;SHT30;69749;42.684;23.360;2023-07-30T12:29:52;33.29;26.01
80412;SHT30;69749;42.684;23.360;2023-07-30T12:32:17;33.14;26.35
80412;SHT30;69749;42.684;23.360;2023-07-30T12:34:43;33.08;26.39
80412;SHT30;69749;42.684;23.360;2023-07-30T12:37:08;33.14;26.56
80412;SHT30;69749;42.684;23.360;2023-07-30T12:39:34;33.19;26.88
80412;SHT30;69749;42.684;23.360;2023-07-30T12:42:00;33.23;25.82
80412;SHT30;69749;42.684;23.360;2023-07-30T12:44:25;33.02;26.19
80412;SHT30;69749;42.684;23.360;2023-07-30T12:46:50;33.05;25.98
80412;SHT30;69749;42.684;23.360;2023-07-30T12:49:16;33.07;27.21
80412;SHT30;69749;42.684;23.360;2023-07-30T12:51:41;33.01;25.95
80412;SHT30;69749;42.684;23.360;2023-07-30T12:54:13;32.92;29.08
80412;SHT30;69749;42.684;23.360;2023-07-30T12:56:38;33.01;29.00
80412;SHT30;69749;42.684;23.360;2023-07-30T12:59:03;33.07;26.31
80412;SHT30;69749;42.684;23.360;2023-07-30T13:01:29;33.09;26.82
80412;SHT30;69749;42.684;23.360;2023-07-30T13:03:54;33.19;26.57
80412;SHT30;69749;42.684;23.360;2023-07-30T13:06:20;33.22;26.67
80412;SHT30;69749;42.684;23.360;2023-07-30T13:08:46;33.28;26.50
80412;SHT30;69749;42.684;23.360;2023-07-30T13:11:11;33.17;26.67
80412;SHT30;69749;42.684;23.360;2023-07-30T13:13:37;33.09;26.44
80412;SHT30;69749;42.684;23.360;2023-07-30T13:16:05;33.17;27.01
80412;SHT30;69749;42.684;23.360;2023-07-30T13:18:31;33.12;27.38
80412;SHT30;69749;42.684;23.360;2023-07-30T13:20:56;33.15;28.13
80412;SHT30;69749;42.684;23.360;2023-07-30T13:23:22;33.14;26.26
80412;SHT30;69749;42.684;23.360;2023-07-30T13:25:50;33.23;26.69
80412;SHT30;69749;42.684;23.360;2023-07-30T13:28:15;33.33;26.83
80412;SHT30;69749;42.684;23.360;2023-07-30T13:30:41;33.33;27.25
80412;SHT30;69749;42.684;23.360;2023-07-30T13:33:06;33.38;27.68
80412;SHT30;69749;42.684;23.360;2023-07-30T13:35:32;33.36;26.66
80412;SHT30;69749;42.684;23.360;2023-07-30T13:37:57;33.33;28.11
80412;SHT30;69749;42.684;23.360;2023-07-30T13:40:23;33.28;26.65
80412;SHT30;69749;42.684;23.360;2023-07-30T13:42:48;33.23;27.04
80412;SHT30;69749;42.684;23.360;2023-07-30T13:45:13;33.17;26.47
80412;SHT30;69749;42.684;23.360;2023-07-30T13:47:39;33.01;26.82
80412;SHT30;69749;42.684;23.360;2023-07-30T13:50:05;33.04;27.19
80412;SHT30;69749;42.684;23.360;2023-07-30T13:52:32;33.05;27.14
80412;SHT30;69749;42.684;23.360;2023-07-30T13:54:57;33.00;27.05
80412;SHT30;69749;42.684;23.360;2023-07-30T13:57:24;32.95;27.30
80412;SHT30;69749;42.684;23.360;2023-07-30T13:59:50;32.90;26.44
80412;SHT30;69749;42.684;23.360;2023-07-30T14:02:16;32.88;27.24
80412;SHT30;69749;42.684;23.360;2023-07-30T14:04:41;32.80;27.20
80412;SHT30;69749;42.684;23.360;2023-07-30T14:07:06;32.71;27.92
80412;SHT30;69749;42.684;23.360;2023-07-30T14:09:32;32.78;27.82
80412;SHT30;69749;42.684;23.360;2023-07-30T14:12:00;32.68;27.28
80412;SHT30;69749;42.684;23.360;2023-07-30T14:14:26;32.61;27.32
80412;SHT30;69749;42.684;23.360;2023-07-30T14:16:53;32.53;27.87
80412;SHT30;69749;42.684;23.360;2023-07-30T14:19:18;32.41;27.43
80412;SHT30;69749;42.684;23.360;2023-07-30T14:21:44;32.44;27.19
80412;SHT30;69749;42.684;23.360;2023-07-30T14:24:10;32.44;27.70
80412;SHT30;69749;42.684;23.360;2023-07-30T14:26:36;32.49;27.10
80412;SHT30;69749;42.684;23.360;2023-07-30T14:29:01;32.45;27.26
80412;SHT30;69749;42.684;23.360;2023-07-30T14:31:27;32.50;27.67
80412;SHT30;69749;42.684;23.360;2023-07-30T14:33:52;32.51;27.06
80412;SHT30;69749;42.684;23.360;2023-07-30T14:36:18;32.50;27.33
80412;SHT30;69749;42.684;23.360;2023-07-30T14:38:43;32.51;28.12
80412;SHT30;69749;42.684;23.360;2023-07-30T14:41:09;32.51;27.29
80412;SHT30;69749;42.684;23.360;2023-07-30T14:43:34;32.44;27.71
80412;SHT30;69749;42.684;23.360;2023-07-30T14:46:00;32.45;27.36
80412;SHT30;69749;42.684;23.360;2023-07-30T14:48:25;32.47;29.02
80412;SHT30;69749;42.684;23.360;2023-07-30T14:50:51;32.44;28.19
80412;SHT30;69749;42.684;23.360;2023-07-30T14:53:16;32.47;28.60
80412;SHT30;69749;42.684;23.360;2023-07-30T14:55:42;32.51;29.51
80412;SHT30;69749;42.684;23.360;2023-07-30T14:58:07;32.54;28.26
80412;SHT30;69749;42.684;23.360;2023-07-30T15:00:34;32.59;27.65
80412;SHT30;69749;42.684;23.360;2023-07-30T15:03:00;32.63;27.63
80412;SHT30;69749;42.684;23.360;2023-07-30T15:05:25;32.63;27.63
80412;SHT30;69749;42.684;23.360;2023-07-30T15:07:54;32.64;27.91
80412;SHT30;69749;42.684;23.360;2023-07-30T15:10:19;32.59;28.16
80412;SHT30;69749;42.684;23.360;2023-07-30T15:12:45;32.56;28.84
80412;SHT30;69749;42.684;23.360;2023-07-30T15:15:10;32.49;28.30
80412;SHT30;69749;42.684;23.360;2023-07-30T15:17:36;32.45;28.23